createdAt,value
2022-08-25T00:00:32.639Z,0.00
2022-08-25T00:05:33.370Z,0.00
2022-08-25T00:10:29.584Z,0.00
2022-08-25T00:15:29.468Z,0.00
2022-08-25T00:20:30.212Z,0.00
2022-08-25T00:25:29.322Z,0.00
2022-08-25T00:30:29.215Z,0.00
2022-08-25T00:35:29.244Z,0.00
2022-08-25T00:40:29.148Z,0.00
2022-08-25T00:45:29.065Z,0.00
2022-08-25T00:50:29.050Z,0.00
2022-08-25T00:55:28.927Z,0.00
2022-08-25T01:00:31.864Z,0.00
2022-08-25T01:05:28.772Z,0.00
2022-08-25T01:10:28.686Z,0.00
2022-08-25T01:15:28.653Z,0.00
2022-08-25T01:20:29.572Z,0.00
2022-08-25T01:25:28.471Z,0.00
2022-08-25T01:30:28.455Z,0.00
2022-08-25T01:35:28.320Z,0.00
2022-08-25T01:40:28.346Z,0.00
2022-08-25T01:45:28.943Z,0.00
2022-08-25T01:50:28.170Z,0.00
2022-08-25T01:55:28.116Z,0.00
2022-08-25T02:00:31.136Z,0.00
2022-08-25T02:05:27.928Z,0.00
2022-08-25T02:10:27.885Z,0.00
2022-08-25T02:15:27.813Z,0.00
2022-08-25T02:20:27.786Z,0.00
2022-08-25T02:25:27.673Z,0.00
2022-08-25T02:30:27.909Z,0.00
2022-08-25T02:35:27.550Z,0.00
2022-08-25T02:40:27.772Z,0.00
2022-08-25T02:45:27.421Z,0.00
2022-08-25T02:50:27.438Z,0.00
2022-08-25T02:55:27.250Z,0.00
2022-08-25T03:00:30.239Z,0.00
2022-08-25T03:05:27.198Z,0.00
2022-08-25T03:10:27.183Z,0.00
2022-08-25T03:15:27.126Z,0.00
2022-08-25T03:20:27.001Z,0.00
2022-08-25T03:25:26.966Z,0.00
2022-08-25T03:30:26.886Z,0.00
2022-08-25T03:35:26.753Z,0.00
2022-08-25T03:40:26.959Z,0.00
2022-08-25T03:45:34.666Z,0.00
2022-08-25T03:50:34.021Z,0.00
2022-08-25T03:55:26.678Z,0.00
2022-08-25T04:00:29.580Z,0.00
2022-08-25T04:05:26.775Z,5.62
2022-08-25T04:10:26.298Z,5.62
2022-08-25T04:15:28.514Z,11.25
2022-08-25T04:20:26.205Z,22.50
2022-08-25T04:25:33.951Z,33.75
2022-08-25T04:30:33.500Z,45.00
2022-08-25T04:35:26.069Z,67.50
2022-08-25T04:40:28.819Z,84.38
2022-08-25T04:45:25.910Z,112.50
2022-08-25T04:50:26.106Z,151.88
2022-08-25T04:55:25.845Z,225.00
2022-08-25T05:00:28.678Z,298.12
2022-08-25T05:05:25.613Z,315.00
2022-08-25T05:10:25.555Z,365.62
2022-08-25T05:15:25.484Z,365.62
2022-08-25T05:20:25.389Z,382.50
2022-08-25T05:25:25.335Z,365.62
2022-08-25T05:30:25.308Z,292.50
2022-08-25T05:35:25.263Z,540.00
2022-08-25T05:40:25.267Z,517.50
2022-08-25T05:45:25.108Z,579.38
2022-08-25T05:50:24.961Z,720.00
2022-08-25T05:55:32.738Z,725.62
2022-08-25T06:00:27.825Z,759.38
2022-08-25T06:05:24.761Z,967.50
2022-08-25T06:10:24.953Z,1231.88
2022-08-25T06:15:24.619Z,939.38
2022-08-25T06:20:25.435Z,922.50
2022-08-25T06:25:24.560Z,945.00
2022-08-25T06:30:28.820Z,961.88
2022-08-25T06:35:24.497Z,1018.12
2022-08-25T06:40:24.797Z,1080.00
2022-08-25T06:45:24.246Z,1158.75
2022-08-25T06:50:24.228Z,1333.12
2022-08-25T06:55:24.162Z,849.38
2022-08-25T07:00:30.625Z,596.25
2022-08-25T07:05:33.521Z,635.62
2022-08-25T07:10:24.963Z,877.50
2022-08-25T07:15:23.837Z,804.38
2022-08-25T07:25:23.734Z,1490.62
2022-08-25T07:30:23.795Z,1681.88
2022-08-25T07:35:24.126Z,1681.88
2022-08-25T07:40:23.712Z,1743.75
2022-08-25T07:45:23.549Z,1833.75
2022-08-25T07:50:23.549Z,1456.88
2022-08-25T07:55:23.501Z,1816.88
2022-08-25T08:00:26.397Z,1884.38
2022-08-25T08:05:31.407Z,1974.38
2022-08-25T08:10:54.235Z,810.00
2022-08-25T08:15:24.105Z,720.00
2022-08-25T08:20:23.698Z,691.88
2022-08-25T08:25:27.227Z,607.50
2022-08-25T08:30:23.708Z,506.25
2022-08-25T08:35:22.940Z,590.62
2022-08-25T08:40:22.793Z,556.88
2022-08-25T08:45:23.130Z,573.75
2022-08-25T08:50:27.739Z,545.62
2022-08-25T08:55:23.805Z,624.38
2022-08-25T09:00:25.644Z,641.25
2022-08-25T09:06:40.259Z,590.62
2022-08-25T09:11:47.541Z,641.25
2022-08-25T09:16:40.202Z,618.75
2022-08-25T09:21:40.002Z,601.88
2022-08-25T09:26:39.789Z,540.00
2022-08-25T09:31:39.754Z,540.00
2022-08-25T09:36:39.782Z,551.25
2022-08-25T09:41:39.731Z,630.00
2022-08-25T09:46:39.522Z,562.50
2022-08-25T09:51:42.959Z,607.50
2022-08-25T09:56:42.464Z,596.25
2022-08-25T10:01:39.446Z,663.75
2022-08-25T10:06:39.277Z,652.50
2022-08-25T10:11:39.198Z,646.88
2022-08-25T10:16:39.184Z,601.88
2022-08-25T10:21:39.088Z,585.00
2022-08-25T10:26:46.876Z,517.50
2022-08-25T10:31:41.339Z,495.00
2022-08-25T10:36:38.995Z,478.12
2022-08-25T10:41:39.020Z,483.75
2022-08-25T10:46:38.779Z,500.62
2022-08-25T10:51:46.686Z,478.12
2022-08-25T10:56:41.729Z,478.12
2022-08-25T11:01:43.755Z,450.00
2022-08-25T11:06:40.456Z,450.00
2022-08-25T11:11:38.581Z,500.62
2022-08-25T11:16:38.534Z,585.00
2022-08-25T11:21:38.274Z,495.00
2022-08-25T11:26:38.312Z,523.12
2022-08-25T11:31:38.196Z,568.12
2022-08-25T11:36:38.194Z,466.88
2022-08-25T11:41:38.001Z,466.88
2022-08-25T11:46:38.014Z,399.38
2022-08-25T11:51:37.863Z,461.25
2022-08-25T11:56:40.855Z,506.25
2022-08-25T12:01:37.954Z,495.00
2022-08-25T12:06:37.764Z,607.50
2022-08-25T12:11:37.622Z,590.62
2022-08-25T12:16:44.687Z,495.00
2022-08-25T12:21:37.559Z,517.50
2022-08-25T12:26:37.494Z,551.25
2022-08-25T12:31:37.404Z,489.38
2022-08-25T12:36:45.148Z,472.50
2022-08-25T12:41:37.247Z,354.38
2022-08-25T12:46:37.285Z,331.88
2022-08-25T12:51:37.142Z,455.62
2022-08-25T12:56:40.151Z,393.75
2022-08-25T13:01:37.127Z,343.12
2022-08-25T13:06:36.999Z,337.50
2022-08-25T13:11:36.868Z,315.00
2022-08-25T13:16:37.014Z,320.62
2022-08-25T13:21:37.211Z,382.50
2022-08-25T13:26:36.938Z,365.62
2022-08-25T13:31:38.194Z,326.25
2022-08-25T13:36:37.698Z,354.38
2022-08-25T13:41:36.591Z,382.50
2022-08-25T13:46:44.342Z,438.75
2022-08-25T13:51:43.884Z,388.12
2022-08-25T13:56:41.217Z,421.88
2022-08-25T14:01:48.337Z,433.12
2022-08-25T14:06:37.342Z,478.12
2022-08-25T14:11:36.087Z,433.12
2022-08-25T14:16:36.152Z,399.38
2022-08-25T14:21:35.952Z,298.12
2022-08-25T14:26:36.969Z,326.25
2022-08-25T14:31:36.836Z,247.50
2022-08-25T14:36:35.972Z,225.00
2022-08-25T14:41:35.791Z,230.62
2022-08-25T14:46:35.820Z,348.75
2022-08-25T14:51:36.209Z,382.50
2022-08-25T14:56:43.090Z,438.75
2022-08-25T15:01:35.525Z,483.75
2022-08-25T15:06:35.414Z,360.00
2022-08-25T15:11:35.441Z,247.50
2022-08-25T15:16:35.490Z,225.00
2022-08-25T15:21:35.536Z,247.50
2022-08-25T15:26:35.259Z,292.50
2022-08-25T15:31:35.135Z,303.75
2022-08-25T15:36:35.096Z,286.88
2022-08-25T15:41:34.987Z,236.25
2022-08-25T15:46:34.982Z,230.62
2022-08-25T15:51:34.849Z,247.50
2022-08-25T15:56:38.007Z,253.12
2022-08-25T16:01:34.756Z,230.62
2022-08-25T16:06:34.648Z,219.38
2022-08-25T16:11:34.546Z,213.75
2022-08-25T16:16:34.585Z,208.12
2022-08-25T16:21:47.089Z,196.88
2022-08-25T16:27:46.082Z,185.62
2022-08-25T16:32:46.008Z,174.38
2022-08-25T16:39:16.439Z,163.12
2022-08-25T16:45:33.295Z,146.25
2022-08-25T16:50:34.519Z,135.00
2022-08-25T16:55:39.023Z,123.75
2022-08-25T17:00:34.188Z,112.50
2022-08-25T17:05:32.868Z,101.25
2022-08-25T17:10:32.871Z,90.00
2022-08-25T17:15:32.853Z,78.75
2022-08-25T17:20:32.705Z,73.12
2022-08-25T17:25:32.759Z,67.50
2022-08-25T17:30:32.692Z,56.25
2022-08-25T17:35:35.631Z,50.62
2022-08-25T17:40:32.461Z,45.00
2022-08-25T17:45:33.595Z,39.38
2022-08-25T17:50:32.293Z,39.38
2022-08-25T17:55:32.632Z,33.75
2022-08-25T18:00:32.122Z,28.12
2022-08-25T18:05:32.142Z,16.88
2022-08-25T18:10:32.086Z,11.25
2022-08-25T18:15:32.532Z,5.62
2022-08-25T18:20:32.251Z,5.62
2022-08-25T18:25:32.295Z,0.00
2022-08-25T18:30:32.903Z,0.00
2022-08-25T18:35:34.972Z,0.00
2022-08-25T18:40:32.063Z,0.00
2022-08-25T18:45:33.291Z,0.00
2022-08-25T18:50:31.463Z,0.00
2022-08-25T18:55:31.931Z,0.00
2022-08-25T19:00:31.898Z,0.00
2022-08-25T19:05:31.420Z,0.00
2022-08-25T19:10:31.411Z,0.00
2022-08-25T19:15:31.346Z,0.00
2022-08-25T19:20:31.049Z,0.00
2022-08-25T19:25:33.177Z,0.00
2022-08-25T19:30:31.111Z,0.00
2022-08-25T19:35:33.901Z,0.00
2022-08-25T19:40:30.908Z,0.00
2022-08-25T19:45:30.841Z,0.00
2022-08-25T19:50:30.676Z,0.00
2022-08-25T19:55:30.683Z,0.00
2022-08-25T20:00:30.566Z,0.00
2022-08-25T20:05:31.350Z,0.00
2022-08-25T20:10:30.461Z,0.00
2022-08-25T20:15:34.282Z,0.00
2022-08-25T20:20:32.459Z,0.00
2022-08-25T20:25:36.749Z,0.00
2022-08-25T20:30:31.204Z,0.00
2022-08-25T20:35:40.914Z,0.00
2022-08-25T20:40:30.242Z,0.00
2022-08-25T20:45:29.996Z,0.00
2022-08-25T20:50:29.884Z,0.00
2022-08-25T20:55:29.848Z,0.00
2022-08-25T21:00:29.784Z,0.00
2022-08-25T21:05:29.703Z,0.00
2022-08-25T21:10:29.598Z,0.00
2022-08-25T21:15:29.614Z,0.00
2022-08-25T21:20:29.618Z,0.00
2022-08-25T21:25:29.451Z,0.00
2022-08-25T21:30:29.404Z,0.00
2022-08-25T21:35:32.269Z,0.00
2022-08-25T21:40:29.238Z,0.00
2022-08-25T21:45:33.313Z,0.00
2022-08-25T21:50:30.178Z,0.00
2022-08-25T21:55:29.022Z,0.00
2022-08-25T22:00:29.031Z,0.00
2022-08-25T22:05:28.901Z,0.00
2022-08-25T22:10:28.926Z,0.00
2022-08-25T22:15:36.694Z,0.00
2022-08-25T22:20:28.873Z,0.00
2022-08-25T22:25:28.723Z,0.00
2022-08-25T22:30:29.597Z,0.00
2022-08-25T22:35:31.558Z,0.00
2022-08-25T22:40:28.517Z,0.00
2022-08-25T22:45:28.416Z,0.00
2022-08-25T22:50:28.278Z,0.00
2022-08-25T22:55:36.046Z,0.00
2022-08-25T23:00:28.133Z,0.00
2022-08-25T23:05:28.091Z,0.00
2022-08-25T23:10:28.070Z,0.00
2022-08-25T23:15:28.024Z,0.00
2022-08-25T23:20:27.891Z,0.00
2022-08-25T23:25:27.851Z,0.00
2022-08-25T23:30:27.720Z,0.00
2022-08-25T23:35:30.811Z,0.00
2022-08-25T23:40:27.666Z,0.00
2022-08-25T23:45:27.671Z,0.00
2022-08-25T23:50:27.441Z,0.00
2022-08-25T23:55:30.635Z,0.00
